createdAt,value
2022-08-29T00:02:21.918Z,1.77
2022-08-29T00:04:49.220Z,2.03
2022-08-29T00:07:16.415Z,1.70
2022-08-29T00:09:50.745Z,2.00
2022-08-29T00:12:18.037Z,1.90
2022-08-29T00:14:45.615Z,1.95
2022-08-29T00:19:46.915Z,1.90
2022-08-29T00:22:14.046Z,1.83
2022-08-29T00:24:47.720Z,1.92
2022-08-29T00:27:14.944Z,1.90
2022-08-29T00:29:42.128Z,1.60
2022-08-29T00:32:15.657Z,2.08
2022-08-29T00:34:42.887Z,2.00
2022-08-29T00:37:10.336Z,1.70
2022-08-29T00:39:44.760Z,1.70
2022-08-29T00:42:12.080Z,1.80
2022-08-29T00:44:39.357Z,1.55
2022-08-29T00:47:15.574Z,1.58
2022-08-29T00:49:46.088Z,1.50
2022-08-29T00:52:31.643Z,1.40
2022-08-29T00:55:10.099Z,1.42
2022-08-29T00:57:44.659Z,1.77
2022-08-29T01:00:12.434Z,1.27
2022-08-29T01:02:41.487Z,1.45
2022-08-29T01:05:17.967Z,2.60
2022-08-29T01:07:45.292Z,1.80
2022-08-29T01:10:39.661Z,1.60
2022-08-29T01:13:07.675Z,1.67
2022-08-29T01:15:35.400Z,1.10
2022-08-29T01:18:10.585Z,1.45
2022-08-29T01:20:40.087Z,1.27
2022-08-29T01:23:32.587Z,1.60
2022-08-29T01:26:00.508Z,1.45
2022-08-29T01:28:43.327Z,1.58
2022-08-29T01:31:15.691Z,1.38
2022-08-29T01:34:09.752Z,1.98
2022-08-29T01:36:39.439Z,1.58
2022-08-29T01:39:07.442Z,1.70
2022-08-29T01:41:41.736Z,1.80
2022-08-29T01:44:10.288Z,1.42
2022-08-29T01:46:37.552Z,1.40
2022-08-29T01:49:14.734Z,1.65
2022-08-29T01:51:42.138Z,1.60
2022-08-29T01:54:29.711Z,1.77
2022-08-29T01:56:56.999Z,1.52
2022-08-29T01:59:27.124Z,1.67
2022-08-29T02:02:06.778Z,1.73
2022-08-29T02:04:34.056Z,1.70
2022-08-29T02:07:01.939Z,1.60
2022-08-29T02:09:36.673Z,1.85
2022-08-29T02:12:07.478Z,1.30
2022-08-29T02:14:35.382Z,1.40
2022-08-29T02:17:09.675Z,2.05
2022-08-29T02:19:37.461Z,1.58
2022-08-29T02:22:05.361Z,1.30
2022-08-29T02:24:39.690Z,1.50
2022-08-29T02:27:06.905Z,1.75
2022-08-29T02:29:38.435Z,1.15
2022-08-29T02:32:14.887Z,1.00
2022-08-29T02:34:47.696Z,1.55
2022-08-29T02:37:22.727Z,1.45
2022-08-29T02:39:49.953Z,1.40
2022-08-29T02:42:17.153Z,1.20
2022-08-29T02:44:50.749Z,1.50
2022-08-29T02:47:18.348Z,1.50
2022-08-29T02:52:19.819Z,1.50
2022-08-29T02:54:53.488Z,1.42
2022-08-29T02:57:27.728Z,1.30
2022-08-29T02:59:54.953Z,1.27
2022-08-29T03:02:22.290Z,1.45
2022-08-29T03:04:55.801Z,2.03
2022-08-29T03:07:22.988Z,1.48
2022-08-29T03:09:50.111Z,1.45
2022-08-29T03:12:24.232Z,1.77
2022-08-29T03:14:53.670Z,1.48
2022-08-29T03:17:21.103Z,1.83
2022-08-29T03:19:54.725Z,1.45
2022-08-29T03:22:21.919Z,1.70
2022-08-29T03:24:49.086Z,1.80
2022-08-29T03:27:22.721Z,1.77
2022-08-29T03:29:50.123Z,1.63
2022-08-29T03:32:17.349Z,1.42
2022-08-29T03:34:51.897Z,1.67
2022-08-29T03:37:19.153Z,1.90
2022-08-29T03:39:46.292Z,1.52
2022-08-29T03:42:20.756Z,1.90
2022-08-29T03:44:48.027Z,1.50
2022-08-29T03:47:15.316Z,1.70
2022-08-29T03:49:48.916Z,1.63
2022-08-29T03:52:16.228Z,1.80
2022-08-29T03:55:02.704Z,1.60
2022-08-29T03:57:33.657Z,1.92
2022-08-29T04:00:01.457Z,1.80
2022-08-29T04:02:35.840Z,1.67
2022-08-29T04:05:09.869Z,1.70
2022-08-29T04:07:47.829Z,1.80
2022-08-29T04:10:17.696Z,1.88
2022-08-29T04:12:45.222Z,2.17
2022-08-29T04:15:19.617Z,1.77
2022-08-29T04:17:53.044Z,1.90
2022-08-29T04:20:28.894Z,1.80
2022-08-29T04:22:56.694Z,1.60
2022-08-29T04:25:25.038Z,1.60
2022-08-29T04:27:58.877Z,1.80
2022-08-29T04:30:26.308Z,1.45
2022-08-29T04:32:53.459Z,1.45
2022-08-29T04:35:27.847Z,1.70
2022-08-29T04:37:55.148Z,5.25
2022-08-29T04:40:23.152Z,7.47
2022-08-29T04:42:57.902Z,1.60
2022-08-29T04:45:26.254Z,1.60
2022-08-29T04:47:53.751Z,1.60
2022-08-29T04:50:28.827Z,1.45
2022-08-29T04:52:56.479Z,1.55
2022-08-29T04:58:06.900Z,1.60
2022-08-29T05:00:38.432Z,1.40
2022-08-29T05:03:14.802Z,1.58
2022-08-29T05:05:41.986Z,1.17
2022-08-29T05:08:09.252Z,1.60
2022-08-29T05:10:43.816Z,1.88
2022-08-29T05:13:11.182Z,1.52
2022-08-29T05:15:39.136Z,1.50
2022-08-29T05:18:14.074Z,1.40
2022-08-29T05:20:42.182Z,1.38
2022-08-29T05:23:10.000Z,1.13
2022-08-29T05:25:52.966Z,1.20
2022-08-29T05:28:20.239Z,1.40
2022-08-29T05:30:47.399Z,1.50
2022-08-29T05:33:21.811Z,1.52
2022-08-29T05:35:49.025Z,1.33
2022-08-29T05:38:16.331Z,1.67
2022-08-29T05:40:50.855Z,1.35
2022-08-29T05:43:18.091Z,1.50
2022-08-29T05:45:45.834Z,1.60
2022-08-29T05:50:49.292Z,1.20
2022-08-29T05:53:29.780Z,1.40
2022-08-29T05:56:03.746Z,1.30
2022-08-29T05:58:37.919Z,1.30
2022-08-29T06:01:05.210Z,1.45
2022-08-29T06:03:32.438Z,1.33
2022-08-29T06:06:06.910Z,1.60
2022-08-29T06:08:34.098Z,1.40
2022-08-29T06:11:01.281Z,1.00
2022-08-29T06:13:34.915Z,1.50
2022-08-29T06:16:02.301Z,1.55
2022-08-29T06:18:34.371Z,1.35
2022-08-29T06:21:12.008Z,1.98
2022-08-29T06:23:39.995Z,1.33
2022-08-29T06:26:07.776Z,1.75
2022-08-29T06:28:42.847Z,1.40
2022-08-29T06:31:11.746Z,1.42
2022-08-29T06:33:39.210Z,1.30
2022-08-29T06:36:13.808Z,1.58
2022-08-29T06:38:41.113Z,1.80
2022-08-29T06:41:12.340Z,1.55
2022-08-29T06:43:46.832Z,1.92
2022-08-29T06:46:24.988Z,1.27
2022-08-29T06:51:26.983Z,1.30
2022-08-29T06:54:07.839Z,0.88
2022-08-29T06:56:36.683Z,1.60
2022-08-29T06:59:04.866Z,1.40
2022-08-29T07:04:14.522Z,1.40
2022-08-29T07:06:49.113Z,1.40
2022-08-29T07:09:16.449Z,1.42
2022-08-29T07:11:44.259Z,1.35
2022-08-29T07:14:20.791Z,1.25
2022-08-29T07:16:48.074Z,1.13
2022-08-29T07:19:15.292Z,1.38
2022-08-29T07:21:48.912Z,1.20
2022-08-29T07:24:16.146Z,1.50
2022-08-29T07:26:44.057Z,1.25
2022-08-29T07:29:22.827Z,0.90
2022-08-29T07:31:53.813Z,1.25
2022-08-29T07:34:21.034Z,1.17
2022-08-29T07:36:55.808Z,1.20
2022-08-29T07:39:24.022Z,1.13
2022-08-29T07:41:51.208Z,1.05
2022-08-29T07:44:25.821Z,1.20
2022-08-29T07:46:58.293Z,1.20
2022-08-29T07:49:41.138Z,1.20
2022-08-29T07:52:09.073Z,1.30
2022-08-29T07:54:48.951Z,1.00
2022-08-29T07:57:25.683Z,1.02
2022-08-29T07:59:59.857Z,1.15
2022-08-29T08:02:27.100Z,1.00
2022-08-29T08:04:54.285Z,1.13
2022-08-29T08:07:29.498Z,1.02
2022-08-29T08:09:56.951Z,1.23
2022-08-29T08:12:25.800Z,1.20
2022-08-29T08:14:59.747Z,0.70
2022-08-29T08:17:27.066Z,0.73
2022-08-29T08:19:54.240Z,0.63
2022-08-29T08:22:27.841Z,1.02
2022-08-29T08:25:03.685Z,0.93
2022-08-29T08:27:41.191Z,0.93
2022-08-29T08:30:11.127Z,1.00
2022-08-29T08:32:54.821Z,1.05
2022-08-29T08:35:22.949Z,0.68
2022-08-29T08:37:50.255Z,0.82
2022-08-29T08:40:27.908Z,0.60
2022-08-29T08:43:00.211Z,1.13
2022-08-29T08:45:39.986Z,0.98
2022-08-29T08:48:15.487Z,0.85
2022-08-29T08:50:56.018Z,1.02
2022-08-29T08:53:26.508Z,0.95
2022-08-29T08:56:09.059Z,0.85
2022-08-29T08:59:03.074Z,0.60
2022-08-29T09:01:41.922Z,0.75
2022-08-29T09:04:10.601Z,0.80
2022-08-29T09:07:08.007Z,0.90
2022-08-29T09:09:53.963Z,0.60
2022-08-29T09:12:43.863Z,1.02
2022-08-29T09:15:13.556Z,0.90
2022-08-29T09:17:51.871Z,0.85
2022-08-29T09:20:21.098Z,0.95
2022-08-29T09:23:19.134Z,1.20
2022-08-29T09:25:46.405Z,1.05
2022-08-29T09:28:13.940Z,0.80
2022-08-29T09:33:20.450Z,0.85
2022-08-29T09:35:59.006Z,0.80
2022-08-29T09:38:28.102Z,0.68
2022-08-29T09:40:56.962Z,0.60
2022-08-29T09:43:50.784Z,0.80
2022-08-29T09:46:23.416Z,0.77
2022-08-29T09:48:59.166Z,0.68
2022-08-29T09:51:26.438Z,0.55
2022-08-29T09:54:33.932Z,0.73
2022-08-29T09:57:21.424Z,0.50
2022-08-29T10:00:16.976Z,0.70
2022-08-29T10:02:44.364Z,0.50
2022-08-29T10:05:42.907Z,1.08
2022-08-29T10:08:25.078Z,0.90
2022-08-29T10:11:00.860Z,1.00
2022-08-29T10:13:34.173Z,0.80
2022-08-29T10:16:14.926Z,0.75
2022-08-29T10:18:51.124Z,0.98
2022-08-29T10:21:25.005Z,1.02
2022-08-29T10:24:12.658Z,0.68
2022-08-29T10:27:07.927Z,0.90
2022-08-29T10:29:53.763Z,0.98
2022-08-29T10:32:46.891Z,0.43
2022-08-29T10:35:14.270Z,0.50
2022-08-29T10:37:55.951Z,0.70
2022-08-29T10:40:26.649Z,0.70
2022-08-29T10:43:08.151Z,0.90
2022-08-29T10:45:57.332Z,0.90
2022-08-29T10:48:37.923Z,0.70
2022-08-29T10:51:20.655Z,0.80
2022-08-29T10:53:57.958Z,0.80
2022-08-29T10:56:35.028Z,0.70
2022-08-29T10:59:08.936Z,0.70
2022-08-29T11:01:40.076Z,0.77
2022-08-29T11:04:24.059Z,0.80
2022-08-29T11:07:11.461Z,1.15
2022-08-29T11:09:54.920Z,0.82
2022-08-29T11:12:22.019Z,1.05
2022-08-29T11:15:14.751Z,0.80
2022-08-29T11:17:43.452Z,0.75
2022-08-29T11:20:24.909Z,1.00
2022-08-29T11:23:03.690Z,1.20
2022-08-29T11:25:39.100Z,0.90
2022-08-29T11:28:16.366Z,0.90
2022-08-29T11:31:08.975Z,0.90
2022-08-29T11:33:46.068Z,1.05
2022-08-29T11:36:46.997Z,0.90
2022-08-29T11:39:14.099Z,1.00
2022-08-29T11:41:43.230Z,0.90
2022-08-29T11:44:35.899Z,0.93
2022-08-29T11:47:23.004Z,0.75
2022-08-29T11:49:58.017Z,0.70
2022-08-29T11:52:27.259Z,0.68
2022-08-29T11:55:26.943Z,1.13
2022-08-29T11:57:58.298Z,1.00
2022-08-29T12:00:44.083Z,0.90
2022-08-29T12:03:30.568Z,0.90
2022-08-29T12:06:23.970Z,0.77
2022-08-29T12:09:05.799Z,0.82
2022-08-29T12:11:59.989Z,1.00
2022-08-29T12:14:37.445Z,1.02
2022-08-29T12:19:49.850Z,0.93
2022-08-29T12:25:33.235Z,0.60
2022-08-29T12:28:07.919Z,0.90
2022-08-29T12:30:41.060Z,1.05
2022-08-29T12:33:28.081Z,0.90
2022-08-29T12:36:02.097Z,1.00
2022-08-29T12:38:41.864Z,0.90
2022-08-29T12:41:09.581Z,1.08
2022-08-29T12:43:44.000Z,1.10
2022-08-29T12:46:14.311Z,0.50
2022-08-29T12:48:57.713Z,0.90
2022-08-29T12:51:42.129Z,0.80
2022-08-29T12:54:16.943Z,0.80
2022-08-29T12:56:52.199Z,1.00
2022-08-29T12:59:29.185Z,1.00
2022-08-29T13:01:57.823Z,0.90
2022-08-29T13:04:26.231Z,0.80
2022-08-29T13:07:11.030Z,0.77
2022-08-29T13:09:43.096Z,0.77
2022-08-29T13:12:33.881Z,0.80
2022-08-29T13:15:19.003Z,1.20
2022-08-29T13:17:53.961Z,0.75
2022-08-29T13:20:42.866Z,0.82
2022-08-29T13:23:20.163Z,0.82
2022-08-29T13:25:56.304Z,0.70
2022-08-29T13:28:32.055Z,0.63
2022-08-29T13:31:05.101Z,0.93
2022-08-29T13:33:40.075Z,0.80
2022-08-29T13:36:26.069Z,0.88
2022-08-29T13:39:20.196Z,0.57
2022-08-29T13:41:47.507Z,0.65
2022-08-29T13:44:19.667Z,0.82
2022-08-29T13:46:54.123Z,1.10
2022-08-29T13:49:23.289Z,0.60
2022-08-29T13:51:50.649Z,0.95
2022-08-29T13:54:25.075Z,0.90
2022-08-29T13:57:02.213Z,0.93
2022-08-29T13:59:41.909Z,0.82
2022-08-29T14:02:10.486Z,0.77
2022-08-29T14:04:40.264Z,0.90
2022-08-29T14:07:16.070Z,0.88
2022-08-29T14:09:45.541Z,1.10
2022-08-29T14:12:14.110Z,1.42
2022-08-29T14:14:47.864Z,0.75
2022-08-29T14:17:18.060Z,1.00
2022-08-29T14:19:46.445Z,0.80
2022-08-29T14:22:21.062Z,0.90
2022-08-29T14:24:52.759Z,1.10
2022-08-29T14:27:28.014Z,1.10
2022-08-29T14:29:55.319Z,0.88
2022-08-29T14:32:24.235Z,1.10
2022-08-29T14:35:00.929Z,0.82
2022-08-29T14:37:28.152Z,0.85
2022-08-29T14:39:55.396Z,1.00
2022-08-29T14:42:29.410Z,1.05
2022-08-29T14:44:56.719Z,0.82
2022-08-29T14:47:23.910Z,1.20
2022-08-29T14:49:57.924Z,1.00
2022-08-29T14:52:26.428Z,1.05
2022-08-29T14:55:09.217Z,1.30
2022-08-29T14:57:36.531Z,0.85
2022-08-29T15:00:15.926Z,1.00
2022-08-29T15:02:43.522Z,0.80
2022-08-29T15:05:10.889Z,0.95
2022-08-29T15:07:45.097Z,0.70
2022-08-29T15:10:13.140Z,1.00
2022-08-29T15:12:40.553Z,0.70
2022-08-29T15:15:14.887Z,0.82
2022-08-29T15:17:43.605Z,0.70
2022-08-29T15:20:35.532Z,0.80
2022-08-29T15:23:05.922Z,0.93
2022-08-29T15:25:33.242Z,0.85
2022-08-29T15:28:00.610Z,0.60
2022-08-29T15:30:35.002Z,1.10
2022-08-29T15:33:02.811Z,1.00
2022-08-29T15:35:30.037Z,0.85
2022-08-29T15:38:03.987Z,0.73
2022-08-29T15:40:31.365Z,0.90
2022-08-29T15:42:58.586Z,0.73
2022-08-29T15:45:33.013Z,0.75
2022-08-29T15:48:00.518Z,0.90
2022-08-29T15:50:29.286Z,0.80
2022-08-29T15:53:03.023Z,1.08
2022-08-29T15:55:39.109Z,0.80
2022-08-29T15:58:22.196Z,0.70
2022-08-29T16:00:49.488Z,0.77
2022-08-29T16:03:16.687Z,0.82
2022-08-29T16:05:50.921Z,1.02
2022-08-29T16:08:18.837Z,0.85
2022-08-29T16:10:46.772Z,0.90
2022-08-29T16:13:21.898Z,0.75
2022-08-29T16:15:50.147Z,0.60
2022-08-29T16:18:17.591Z,0.90
2022-08-29T16:20:52.000Z,0.80
2022-08-29T16:23:24.128Z,0.80
2022-08-29T16:25:51.350Z,0.68
2022-08-29T16:28:25.974Z,1.10
2022-08-29T16:30:53.419Z,0.90
2022-08-29T16:33:20.602Z,1.05
2022-08-29T16:35:54.072Z,1.00
2022-08-29T16:38:21.888Z,1.08
2022-08-29T16:40:49.825Z,0.93
2022-08-29T16:43:23.969Z,0.90
2022-08-29T16:45:51.329Z,0.80
2022-08-29T16:48:18.688Z,0.98
2022-08-29T18:19:53.280Z,0.88
2022-08-29T18:22:20.440Z,0.93
2022-08-29T18:24:48.130Z,0.80
2022-08-29T18:29:49.584Z,1.00
2022-08-29T18:32:17.252Z,0.95
2022-08-29T18:34:50.998Z,0.77
2022-08-29T18:37:18.504Z,1.10
2022-08-29T18:39:45.951Z,1.00
2022-08-29T18:42:39.549Z,1.20
2022-08-29T18:45:08.210Z,0.98
2022-08-29T18:47:42.034Z,1.30
2022-08-29T18:50:28.263Z,1.10
2022-08-29T18:53:02.135Z,1.02
2022-08-29T18:55:29.448Z,1.17
2022-08-29T18:57:56.811Z,1.40
2022-08-29T19:00:32.097Z,1.35
2022-08-29T19:03:00.855Z,1.00
2022-08-29T19:05:44.227Z,1.15
2022-08-29T19:08:11.719Z,0.90
2022-08-29T19:13:20.055Z,1.02
2022-08-29T19:15:48.506Z,1.15
2022-08-29T19:18:31.095Z,1.10
2022-08-29T19:21:09.744Z,0.88
2022-08-29T19:23:52.114Z,1.20
2022-08-29T19:26:30.872Z,1.63
2022-08-29T19:29:06.425Z,1.10
2022-08-29T19:31:33.726Z,1.23
2022-08-29T19:34:01.082Z,1.20
2022-08-29T19:36:39.324Z,1.27
2022-08-29T19:39:06.514Z,1.25
2022-08-29T19:41:42.082Z,1.20
2022-08-29T19:44:09.446Z,1.40
2022-08-29T19:46:36.738Z,1.27
2022-08-29T19:49:11.384Z,1.30
2022-08-29T19:51:40.073Z,1.55
2022-08-29T19:54:07.378Z,1.40
2022-08-29T19:56:41.032Z,1.70
2022-08-29T19:59:14.247Z,1.48
2022-08-29T20:01:52.198Z,1.40
2022-08-29T20:04:19.408Z,1.20
2022-08-29T20:06:46.595Z,1.60
2022-08-29T20:09:22.206Z,1.42
2022-08-29T20:11:52.433Z,1.70
2022-08-29T20:14:19.612Z,1.30
2022-08-29T20:19:27.947Z,1.40
2022-08-29T20:22:08.099Z,1.30
2022-08-29T20:24:35.414Z,1.50
2022-08-29T20:27:02.721Z,1.17
2022-08-29T20:29:37.108Z,1.30
2022-08-29T20:32:07.037Z,1.40
2022-08-29T20:34:34.491Z,1.60
2022-08-29T20:37:21.073Z,1.50
2022-08-29T20:39:48.447Z,1.20
2022-08-29T20:42:17.023Z,1.48
2022-08-29T20:44:52.105Z,1.35
2022-08-29T20:47:20.211Z,1.25
2022-08-29T20:49:47.869Z,1.40
2022-08-29T20:54:49.343Z,1.55
2022-08-29T20:57:16.506Z,1.70
2022-08-29T20:59:51.010Z,1.48
2022-08-29T21:02:18.353Z,1.50
2022-08-29T21:05:11.133Z,1.52
2022-08-29T21:07:38.351Z,1.50
2022-08-29T21:10:05.800Z,1.67
2022-08-29T21:12:40.016Z,1.73
2022-08-29T21:15:07.495Z,1.45
2022-08-29T21:17:34.627Z,1.70
2022-08-29T21:20:13.424Z,1.50
2022-08-29T21:22:40.645Z,1.73
2022-08-29T21:25:08.031Z,1.75
2022-08-29T21:27:41.997Z,1.63
2022-08-29T21:30:09.496Z,1.60
2022-08-29T21:32:36.647Z,1.70
2022-08-29T21:35:10.086Z,1.90
2022-08-29T21:37:37.334Z,1.85
2022-08-29T21:40:06.332Z,1.48
2022-08-29T21:42:41.156Z,2.10
2022-08-29T21:45:09.759Z,1.63
2022-08-29T21:47:37.485Z,1.50
2022-08-29T21:50:12.152Z,2.40
2022-08-29T21:52:39.378Z,1.83
2022-08-29T21:55:06.762Z,2.20
2022-08-29T21:57:59.319Z,1.98
2022-08-29T22:00:27.868Z,1.88
2022-08-29T22:02:55.412Z,1.75
2022-08-29T22:07:57.030Z,1.80
2022-08-29T22:10:26.686Z,1.73
2022-08-29T22:13:00.087Z,1.73
2022-08-29T22:15:46.844Z,1.92
2022-08-29T22:18:23.014Z,1.95
2022-08-29T22:20:57.711Z,1.83
2022-08-29T22:23:38.021Z,1.58
2022-08-29T22:26:05.307Z,2.03
2022-08-29T22:28:32.444Z,1.73
2022-08-29T22:31:08.047Z,1.90
2022-08-29T22:33:35.431Z,1.92
2022-08-29T22:36:02.668Z,2.10
2022-08-29T22:38:36.993Z,1.85
2022-08-29T22:41:04.539Z,2.08
2022-08-29T22:43:31.835Z,2.15
2022-08-29T22:46:06.203Z,1.95
2022-08-29T22:48:33.443Z,1.92
2022-08-29T22:51:01.436Z,2.10
2022-08-29T22:53:35.053Z,1.80
2022-08-29T22:56:02.343Z,1.92
2022-08-29T22:58:29.476Z,1.73
2022-08-29T23:01:03.106Z,1.90
2022-08-29T23:03:30.360Z,1.50
2022-08-29T23:05:58.949Z,2.20
2022-08-29T23:08:33.160Z,1.85
2022-08-29T23:11:00.527Z,2.05
2022-08-29T23:13:27.999Z,2.20
2022-08-29T23:16:05.218Z,2.10
2022-08-29T23:18:32.681Z,2.30
2022-08-29T23:21:13.045Z,1.90
2022-08-29T23:23:41.028Z,1.90
2022-08-29T23:28:42.064Z,2.05
2022-08-29T23:31:36.950Z,2.05
2022-08-29T23:34:11.017Z,2.08
2022-08-29T23:36:38.412Z,1.95
2022-08-29T23:39:21.218Z,1.80
2022-08-29T23:41:48.458Z,1.30
2022-08-29T23:44:15.637Z,1.60
2022-08-29T23:46:49.187Z,1.20
2022-08-29T23:49:16.456Z,1.50
2022-08-29T23:51:43.776Z,1.67
2022-08-29T23:54:23.208Z,2.05
2022-08-29T23:56:50.470Z,1.90
2022-08-29T23:59:43.160Z,2.05
